Pagina principale
METAR-TAF:

METAR-TAF

Aeroporti :

Aeroporto di Benin

Benin City, Nigeria

latitudine: 6-19N, longitudine: 5-36E, altezza: 79 m

METAR: mancante

Ora: 13:51 (12:51 UTC)

Previsione

Il bollettino è stato emesso 27 ore e 1 minuti fa, alle 09:50 UTC
Previsione valida dal 25 alle 12 UTC al 26 alle 18 UTC
Vento 10 kt da sud/sud-ovest
Visibilità 10 km o più
Nuvoloso ad un'altezza di 1200 ft
Poco nuvoloso ad un'altezza di 2000 ft, Cumulonembo.
Temporaneamente
dal 25 alle 12 UTC al 25 alle 17 UTC
temporale
Probabilità 30%
dal 25 alle 13 UTC al 25 alle 17 UTC
Visibilità: 5000 m
Nuvoloso ad un'altezza di 900 ft
Poco nuvoloso ad un'altezza di 1900 ft, Cumulonembo.
temporale, pioggia debole
Evoluzione graduale
dal 25 alle 18 UTC al 25 alle 20 UTC
Vento 2 kt da direzioni variabili
Poco nuvoloso ad un'altezza di 1000 ft

TAF: DNBE 250950Z 2512/2618 21010KT 9999 BKN012 FEW020CB TEMPO 2512/2517 TS PROB30 2513/2517 5000 -TSRA BKN009 FEW019CB BECMG 2518/2520 VRB02KT FEW010

Osservazioni e previsioni meteorologiche di più di 4000 aeroporti (messaggi METAR e TAF).

Le stazioni disponibili sono rappresentate dai dischi gialli e rossi sulla carta.

Puntare il mouse per vedere il nome della stazione.

Clicca sopra per visualizzare le osservazioni e previsioni meteorologiche.

Per cambiare la mappa : fare clic sui pulsanti verdi con una croce nera per ingrandire, il pulsante verde con un trattino per diminuire, o sulla freccia verde per le mappe adiacenti.


METAR-TAF: